sensor_id;sensor_type;location;lat;lon;timestamp;temperature;humidity
79055;DHT22;68452;47.186;-1.528;2023-04-12T00:01:56;12.60;86.80
79055;DHT22;68452;47.186;-1.528;2023-04-12T00:04:22;12.60;86.80
79055;DHT22;68452;47.186;-1.528;2023-04-12T00:06:54;12.70;86.60
79055;DHT22;68452;47.186;-1.528;2023-04-12T00:09:20;12.60;86.20
79055;DHT22;68452;47.186;-1.528;2023-04-12T00:11:46;12.60;85.90
79055;DHT22;68452;47.186;-1.528;2023-04-12T00:14:12;12.70;85.40
79055;DHT22;68452;47.186;-1.528;2023-04-12T00:16:38;12.70;85.30
79055;DHT22;68452;47.186;-1.528;2023-04-12T00:19:04;12.70;85.40
79055;DHT22;68452;47.186;-1.528;2023-04-12T00:21:31;12.70;85.10
79055;DHT22;68452;47.186;-1.528;2023-04-12T00:23:57;12.70;84.90
79055;DHT22;68452;47.186;-1.528;2023-04-12T00:26:23;12.70;85.20
79055;DHT22;68452;47.186;-1.528;2023-04-12T00:28:51;12.60;85.50
79055;DHT22;68452;47.186;-1.528;2023-04-12T00:31:17;12.60;85.70
79055;DHT22;68452;47.186;-1.528;2023-04-12T00:33:43;12.60;85.70
79055;DHT22;68452;47.186;-1.528;2023-04-12T00:36:09;12.70;85.50
79055;DHT22;68452;47.186;-1.528;2023-04-12T00:38:34;12.70;85.60
79055;DHT22;68452;47.186;-1.528;2023-04-12T00:41:01;12.80;84.80
79055;DHT22;68452;47.186;-1.528;2023-04-12T00:43:26;12.70;84.60
79055;DHT22;68452;47.186;-1.528;2023-04-12T00:45:54;12.70;84.60
79055;DHT22;68452;47.186;-1.528;2023-04-12T00:48:22;12.70;85.00
79055;DHT22;68452;47.186;-1.528;2023-04-12T00:50:49;12.70;85.30
79055;DHT22;68452;47.186;-1.528;2023-04-12T00:53:17;12.70;86.20
79055;DHT22;68452;47.186;-1.528;2023-04-12T00:55:44;12.60;86.60
79055;DHT22;68452;47.186;-1.528;2023-04-12T00:58:10;12.60;86.70
79055;DHT22;68452;47.186;-1.528;2023-04-12T01:00:36;12.60;86.80
79055;DHT22;68452;47.186;-1.528;2023-04-12T01:03:03;12.50;87.00
79055;DHT22;68452;47.186;-1.528;2023-04-12T01:05:37;12.50;87.40
79055;DHT22;68452;47.186;-1.528;2023-04-12T01:08:17;12.60;87.70
79055;DHT22;68452;47.186;-1.528;2023-04-12T01:11:19;12.60;87.90
79055;DHT22;68452;47.186;-1.528;2023-04-12T01:13:50;12.60;87.40
79055;DHT22;68452;47.186;-1.528;2023-04-12T01:16:46;12.60;87.20
79055;DHT22;68452;47.186;-1.528;2023-04-12T01:19:28;12.60;87.60
79055;DHT22;68452;47.186;-1.528;2023-04-12T01:27:41;12.70;88.30
79055;DHT22;68452;47.186;-1.528;2023-04-12T01:30:12;12.60;88.10
79055;DHT22;68452;47.186;-1.528;2023-04-12T01:32:39;12.60;87.90
79055;DHT22;68452;47.186;-1.528;2023-04-12T01:35:07;12.60;87.50
79055;DHT22;68452;47.186;-1.528;2023-04-12T01:37:35;12.60;87.60
79055;DHT22;68452;47.186;-1.528;2023-04-12T01:40:02;12.70;87.50
79055;DHT22;68452;47.186;-1.528;2023-04-12T01:42:34;12.60;87.60
79055;DHT22;68452;47.186;-1.528;2023-04-12T01:45:01;12.60;87.30
79055;DHT22;68452;47.186;-1.528;2023-04-12T01:47:27;12.60;87.10
79055;DHT22;68452;47.186;-1.528;2023-04-12T01:50:24;12.60;87.20
79055;DHT22;68452;47.186;-1.528;2023-04-12T01:52:58;12.60;87.40
79055;DHT22;68452;47.186;-1.528;2023-04-12T01:55:29;12.50;87.20
79055;DHT22;68452;47.186;-1.528;2023-04-12T01:57:56;12.50;87.10
79055;DHT22;68452;47.186;-1.528;2023-04-12T02:00:24;12.50;87.20
79055;DHT22;68452;47.186;-1.528;2023-04-12T02:02:52;12.50;87.10
79055;DHT22;68452;47.186;-1.528;2023-04-12T02:05:18;12.50;87.00
79055;DHT22;68452;47.186;-1.528;2023-04-12T02:07:45;12.50;86.80
79055;DHT22;68452;47.186;-1.528;2023-04-12T02:10:13;12.50;86.60
79055;DHT22;68452;47.186;-1.528;2023-04-12T02:12:39;12.50;86.40
79055;DHT22;68452;47.186;-1.528;2023-04-12T02:15:06;12.40;86.50
79055;DHT22;68452;47.186;-1.528;2023-04-12T02:17:33;12.40;86.30
79055;DHT22;68452;47.186;-1.528;2023-04-12T02:20:01;12.40;86.10
79055;DHT22;68452;47.186;-1.528;2023-04-12T02:22:27;12.30;86.30
79055;DHT22;68452;47.186;-1.528;2023-04-12T02:24:52;12.30;85.80
79055;DHT22;68452;47.186;-1.528;2023-04-12T02:27:18;12.20;86.10
79055;DHT22;68452;47.186;-1.528;2023-04-12T02:29:44;12.30;86.40
79055;DHT22;68452;47.186;-1.528;2023-04-12T02:32:10;12.30;86.50
79055;DHT22;68452;47.186;-1.528;2023-04-12T02:34:37;12.20;86.20
79055;DHT22;68452;47.186;-1.528;2023-04-12T02:37:04;12.20;85.00
79055;DHT22;68452;47.186;-1.528;2023-04-12T02:39:31;12.20;84.90
79055;DHT22;68452;47.186;-1.528;2023-04-12T02:41:59;12.20;85.30
79055;DHT22;68452;47.186;-1.528;2023-04-12T02:44:28;12.10;85.50
79055;DHT22;68452;47.186;-1.528;2023-04-12T02:46:55;12.20;85.90
79055;DHT22;68452;47.186;-1.528;2023-04-12T02:49:21;12.10;85.80
79055;DHT22;68452;47.186;-1.528;2023-04-12T02:51:47;12.20;85.50
79055;DHT22;68452;47.186;-1.528;2023-04-12T02:54:12;12.10;85.30
79055;DHT22;68452;47.186;-1.528;2023-04-12T02:56:38;12.10;84.70
79055;DHT22;68452;47.186;-1.528;2023-04-12T02:59:05;12.10;85.00
79055;DHT22;68452;47.186;-1.528;2023-04-12T03:01:31;12.10;84.90
79055;DHT22;68452;47.186;-1.528;2023-04-12T03:03:58;12.10;85.10
79055;DHT22;68452;47.186;-1.528;2023-04-12T03:06:24;12.20;84.40
79055;DHT22;68452;47.186;-1.528;2023-04-12T03:08:49;12.20;84.40
79055;DHT22;68452;47.186;-1.528;2023-04-12T03:11:15;12.10;84.40
79055;DHT22;68452;47.186;-1.528;2023-04-12T03:13:41;12.20;85.00
79055;DHT22;68452;47.186;-1.528;2023-04-12T03:16:25;12.20;84.70
79055;DHT22;68452;47.186;-1.528;2023-04-12T03:18:54;12.10;84.50
79055;DHT22;68452;47.186;-1.528;2023-04-12T03:21:21;12.20;84.10
79055;DHT22;68452;47.186;-1.528;2023-04-12T03:23:46;12.10;84.50
79055;DHT22;68452;47.186;-1.528;2023-04-12T03:26:12;12.10;84.20
79055;DHT22;68452;47.186;-1.528;2023-04-12T03:28:39;12.20;83.80
79055;DHT22;68452;47.186;-1.528;2023-04-12T03:31:06;12.10;84.00
79055;DHT22;68452;47.186;-1.528;2023-04-12T03:33:32;12.20;84.20
79055;DHT22;68452;47.186;-1.528;2023-04-12T03:35:58;12.20;83.40
79055;DHT22;68452;47.186;-1.528;2023-04-12T03:38:24;12.20;83.90
79055;DHT22;68452;47.186;-1.528;2023-04-12T03:40:50;12.20;84.10
79055;DHT22;68452;47.186;-1.528;2023-04-12T03:43:16;12.20;83.80
79055;DHT22;68452;47.186;-1.528;2023-04-12T03:45:42;12.20;83.70
79055;DHT22;68452;47.186;-1.528;2023-04-12T03:48:08;12.20;84.20
79055;DHT22;68452;47.186;-1.528;2023-04-12T03:50:36;12.20;84.60
79055;DHT22;68452;47.186;-1.528;2023-04-12T03:53:12;12.20;84.50
79055;DHT22;68452;47.186;-1.528;2023-04-12T03:55:38;12.20;84.00
79055;DHT22;68452;47.186;-1.528;2023-04-12T03:58:04;12.30;84.60
79055;DHT22;68452;47.186;-1.528;2023-04-12T04:00:30;12.30;85.40
79055;DHT22;68452;47.186;-1.528;2023-04-12T04:02:57;12.30;85.60
79055;DHT22;68452;47.186;-1.528;2023-04-12T04:05:28;12.30;85.90
79055;DHT22;68452;47.186;-1.528;2023-04-12T04:07:55;12.20;86.00
79055;DHT22;68452;47.186;-1.528;2023-04-12T04:10:25;12.20;86.40
79055;DHT22;68452;47.186;-1.528;2023-04-12T04:12:52;12.20;85.90
79055;DHT22;68452;47.186;-1.528;2023-04-12T04:15:18;12.10;84.50
79055;DHT22;68452;47.186;-1.528;2023-04-12T04:17:44;12.00;84.40
79055;DHT22;68452;47.186;-1.528;2023-04-12T04:20:11;12.00;85.30
79055;DHT22;68452;47.186;-1.528;2023-04-12T04:22:38;12.00;85.80
79055;DHT22;68452;47.186;-1.528;2023-04-12T04:25:04;12.00;85.90
79055;DHT22;68452;47.186;-1.528;2023-04-12T04:27:30;12.00;85.80
79055;DHT22;68452;47.186;-1.528;2023-04-12T04:29:59;11.90;85.60
79055;DHT22;68452;47.186;-1.528;2023-04-12T04:32:30;11.90;84.70
79055;DHT22;68452;47.186;-1.528;2023-04-12T04:34:57;11.90;84.60
79055;DHT22;68452;47.186;-1.528;2023-04-12T04:37:28;11.90;85.00
79055;DHT22;68452;47.186;-1.528;2023-04-12T04:39:55;11.90;84.10
79055;DHT22;68452;47.186;-1.528;2023-04-12T04:42:21;11.90;83.80
79055;DHT22;68452;47.186;-1.528;2023-04-12T04:44:48;11.90;84.40
79055;DHT22;68452;47.186;-1.528;2023-04-12T04:47:26;11.90;84.70
79055;DHT22;68452;47.186;-1.528;2023-04-12T04:49:55;11.90;84.90
79055;DHT22;68452;47.186;-1.528;2023-04-12T04:52:24;11.90;84.60
79055;DHT22;68452;47.186;-1.528;2023-04-12T04:54:50;11.90;85.20
79055;DHT22;68452;47.186;-1.528;2023-04-12T04:57:16;11.80;85.10
79055;DHT22;68452;47.186;-1.528;2023-04-12T04:59:42;11.80;85.30
79055;DHT22;68452;47.186;-1.528;2023-04-12T05:02:09;11.80;85.10
79055;DHT22;68452;47.186;-1.528;2023-04-12T05:04:36;11.70;84.80
79055;DHT22;68452;47.186;-1.528;2023-04-12T05:07:02;11.70;85.20
79055;DHT22;68452;47.186;-1.528;2023-04-12T05:09:28;11.80;84.90
79055;DHT22;68452;47.186;-1.528;2023-04-12T05:11:53;11.90;84.90
79055;DHT22;68452;47.186;-1.528;2023-04-12T05:14:19;11.90;84.30
79055;DHT22;68452;47.186;-1.528;2023-04-12T05:16:45;11.80;84.00
79055;DHT22;68452;47.186;-1.528;2023-04-12T05:19:11;11.80;84.00
79055;DHT22;68452;47.186;-1.528;2023-04-12T05:21:37;11.80;84.70
79055;DHT22;68452;47.186;-1.528;2023-04-12T05:24:03;11.70;84.70
79055;DHT22;68452;47.186;-1.528;2023-04-12T05:26:28;11.60;84.30
79055;DHT22;68452;47.186;-1.528;2023-04-12T05:28:54;11.60;84.20
79055;DHT22;68452;47.186;-1.528;2023-04-12T05:31:20;11.50;84.10
79055;DHT22;68452;47.186;-1.528;2023-04-12T05:33:46;11.50;83.80
79055;DHT22;68452;47.186;-1.528;2023-04-12T05:36:13;11.50;83.50
79055;DHT22;68452;47.186;-1.528;2023-04-12T05:38:39;11.50;83.40
79055;DHT22;68452;47.186;-1.528;2023-04-12T05:41:05;11.50;84.10
79055;DHT22;68452;47.186;-1.528;2023-04-12T05:43:31;11.40;83.90
79055;DHT22;68452;47.186;-1.528;2023-04-12T05:45:57;11.30;83.40
79055;DHT22;68452;47.186;-1.528;2023-04-12T05:48:23;11.30;83.20
79055;DHT22;68452;47.186;-1.528;2023-04-12T05:50:50;11.30;81.60
79055;DHT22;68452;47.186;-1.528;2023-04-12T05:53:16;11.30;82.20
79055;DHT22;68452;47.186;-1.528;2023-04-12T05:55:43;11.20;82.10
79055;DHT22;68452;47.186;-1.528;2023-04-12T05:58:08;11.20;81.90
79055;DHT22;68452;47.186;-1.528;2023-04-12T06:00:35;11.20;81.90
79055;DHT22;68452;47.186;-1.528;2023-04-12T06:03:01;11.20;81.60
79055;DHT22;68452;47.186;-1.528;2023-04-12T06:05:27;11.30;81.10
79055;DHT22;68452;47.186;-1.528;2023-04-12T06:07:53;11.10;78.70
79055;DHT22;68452;47.186;-1.528;2023-04-12T06:10:19;11.10;80.50
79055;DHT22;68452;47.186;-1.528;2023-04-12T06:12:45;11.00;80.70
79055;DHT22;68452;47.186;-1.528;2023-04-12T06:15:11;11.00;80.30
79055;DHT22;68452;47.186;-1.528;2023-04-12T06:17:37;11.00;81.10
79055;DHT22;68452;47.186;-1.528;2023-04-12T06:20:03;11.00;80.90
79055;DHT22;68452;47.186;-1.528;2023-04-12T06:22:34;10.90;81.30
79055;DHT22;68452;47.186;-1.528;2023-04-12T06:25:00;10.80;79.40
79055;DHT22;68452;47.186;-1.528;2023-04-12T06:27:25;10.90;80.40
79055;DHT22;68452;47.186;-1.528;2023-04-12T06:29:52;10.80;81.10
79055;DHT22;68452;47.186;-1.528;2023-04-12T06:32:18;10.80;80.70
79055;DHT22;68452;47.186;-1.528;2023-04-12T06:34:43;10.80;80.90
79055;DHT22;68452;47.186;-1.528;2023-04-12T06:37:10;10.80;80.70
79055;DHT22;68452;47.186;-1.528;2023-04-12T06:39:35;10.80;80.30
79055;DHT22;68452;47.186;-1.528;2023-04-12T06:42:02;10.90;80.70
79055;DHT22;68452;47.186;-1.528;2023-04-12T06:44:27;10.90;80.90
79055;DHT22;68452;47.186;-1.528;2023-04-12T06:46:53;10.90;79.00
79055;DHT22;68452;47.186;-1.528;2023-04-12T06:49:19;10.80;80.40
79055;DHT22;68452;47.186;-1.528;2023-04-12T06:51:45;10.80;80.10
79055;DHT22;68452;47.186;-1.528;2023-04-12T06:54:12;10.90;80.80
79055;DHT22;68452;47.186;-1.528;2023-04-12T06:56:38;10.90;81.70
79055;DHT22;68452;47.186;-1.528;2023-04-12T06:59:04;10.80;80.30
79055;DHT22;68452;47.186;-1.528;2023-04-12T07:01:30;10.90;77.40
79055;DHT22;68452;47.186;-1.528;2023-04-12T07:03:56;10.90;75.80
79055;DHT22;68452;47.186;-1.528;2023-04-12T07:06:22;10.90;78.50
79055;DHT22;68452;47.186;-1.528;2023-04-12T07:08:48;10.90;76.80
79055;DHT22;68452;47.186;-1.528;2023-04-12T07:11:14;10.90;79.70
79055;DHT22;68452;47.186;-1.528;2023-04-12T07:13:40;10.90;78.30
79055;DHT22;68452;47.186;-1.528;2023-04-12T07:16:06;10.90;77.10
79055;DHT22;68452;47.186;-1.528;2023-04-12T07:18:31;11.00;77.90
79055;DHT22;68452;47.186;-1.528;2023-04-12T07:20:57;11.00;76.40
79055;DHT22;68452;47.186;-1.528;2023-04-12T07:23:23;11.00;76.30
79055;DHT22;68452;47.186;-1.528;2023-04-12T07:25:50;11.00;77.00
79055;DHT22;68452;47.186;-1.528;2023-04-12T07:28:17;11.00;80.10
79055;DHT22;68452;47.186;-1.528;2023-04-12T07:30:43;10.90;78.20
79055;DHT22;68452;47.186;-1.528;2023-04-12T07:33:09;10.90;77.20
79055;DHT22;68452;47.186;-1.528;2023-04-12T07:35:35;10.90;75.50
79055;DHT22;68452;47.186;-1.528;2023-04-12T07:38:01;11.00;78.40
79055;DHT22;68452;47.186;-1.528;2023-04-12T07:40:27;11.00;78.20
79055;DHT22;68452;47.186;-1.528;2023-04-12T07:42:53;11.20;77.30
79055;DHT22;68452;47.186;-1.528;2023-04-12T07:45:19;11.30;78.40
79055;DHT22;68452;47.186;-1.528;2023-04-12T07:47:46;11.30;79.50
79055;DHT22;68452;47.186;-1.528;2023-04-12T07:50:13;11.30;78.90
79055;DHT22;68452;47.186;-1.528;2023-04-12T07:52:40;11.30;78.30
79055;DHT22;68452;47.186;-1.528;2023-04-12T07:55:07;11.30;77.10
79055;DHT22;68452;47.186;-1.528;2023-04-12T07:57:35;11.40;76.50
79055;DHT22;68452;47.186;-1.528;2023-04-12T08:00:01;11.30;78.20
79055;DHT22;68452;47.186;-1.528;2023-04-12T08:02:26;11.30;78.60
79055;DHT22;68452;47.186;-1.528;2023-04-12T08:04:53;11.40;78.90
79055;DHT22;68452;47.186;-1.528;2023-04-12T08:07:19;11.50;76.60
79055;DHT22;68452;47.186;-1.528;2023-04-12T08:09:47;11.50;75.60
79055;DHT22;68452;47.186;-1.528;2023-04-12T08:12:13;11.50;75.50
79055;DHT22;68452;47.186;-1.528;2023-04-12T08:14:39;11.50;76.90
79055;DHT22;68452;47.186;-1.528;2023-04-12T08:17:06;11.50;76.10
79055;DHT22;68452;47.186;-1.528;2023-04-12T08:19:31;11.50;78.80
79055;DHT22;68452;47.186;-1.528;2023-04-12T08:21:57;11.50;76.40
79055;DHT22;68452;47.186;-1.528;2023-04-12T08:24:23;11.40;76.90
79055;DHT22;68452;47.186;-1.528;2023-04-12T08:26:50;11.30;76.50
79055;DHT22;68452;47.186;-1.528;2023-04-12T08:29:16;11.30;76.90
79055;DHT22;68452;47.186;-1.528;2023-04-12T08:31:43;11.20;76.20
79055;DHT22;68452;47.186;-1.528;2023-04-12T08:34:09;11.20;78.30
79055;DHT22;68452;47.186;-1.528;2023-04-12T08:36:34;11.30;76.30
79055;DHT22;68452;47.186;-1.528;2023-04-12T08:39:01;11.40;75.90
79055;DHT22;68452;47.186;-1.528;2023-04-12T08:41:27;11.50;76.20
79055;DHT22;68452;47.186;-1.528;2023-04-12T08:43:54;11.60;75.80
79055;DHT22;68452;47.186;-1.528;2023-04-12T08:46:22;11.60;73.70
79055;DHT22;68452;47.186;-1.528;2023-04-12T08:48:49;11.50;76.10
79055;DHT22;68452;47.186;-1.528;2023-04-12T08:51:19;11.50;72.50
79055;DHT22;68452;47.186;-1.528;2023-04-12T08:53:46;11.40;72.90
79055;DHT22;68452;47.186;-1.528;2023-04-12T08:56:13;11.40;68.00
79055;DHT22;68452;47.186;-1.528;2023-04-12T08:58:40;11.30;71.30
79055;DHT22;68452;47.186;-1.528;2023-04-12T09:01:10;11.20;69.70
79055;DHT22;68452;47.186;-1.528;2023-04-12T09:03:38;11.10;71.40
79055;DHT22;68452;47.186;-1.528;2023-04-12T09:06:05;11.00;74.00
79055;DHT22;68452;47.186;-1.528;2023-04-12T09:08:31;10.90;73.50
79055;DHT22;68452;47.186;-1.528;2023-04-12T09:10:57;10.80;75.30
79055;DHT22;68452;47.186;-1.528;2023-04-12T09:13:33;10.80;76.20
79055;DHT22;68452;47.186;-1.528;2023-04-12T09:16:00;10.90;75.70
79055;DHT22;68452;47.186;-1.528;2023-04-12T09:18:26;10.90;74.90
79055;DHT22;68452;47.186;-1.528;2023-04-12T09:21:12;11.10;72.50
79055;DHT22;68452;47.186;-1.528;2023-04-12T09:23:38;11.10;76.70
79055;DHT22;68452;47.186;-1.528;2023-04-12T09:26:04;11.20;75.80
79055;DHT22;68452;47.186;-1.528;2023-04-12T09:28:31;11.30;77.60
79055;DHT22;68452;47.186;-1.528;2023-04-12T09:30:58;11.40;71.90
79055;DHT22;68452;47.186;-1.528;2023-04-12T09:33:36;11.40;73.50
79055;DHT22;68452;47.186;-1.528;2023-04-12T09:36:03;11.50;74.00
79055;DHT22;68452;47.186;-1.528;2023-04-12T09:38:30;11.50;71.70
79055;DHT22;68452;47.186;-1.528;2023-04-12T09:40:57;11.50;72.60
79055;DHT22;68452;47.186;-1.528;2023-04-12T09:43:39;11.50;67.80
79055;DHT22;68452;47.186;-1.528;2023-04-12T09:46:14;11.50;72.30
79055;DHT22;68452;47.186;-1.528;2023-04-12T09:48:47;11.60;67.30
79055;DHT22;68452;47.186;-1.528;2023-04-12T09:51:24;11.50;68.30
79055;DHT22;68452;47.186;-1.528;2023-04-12T09:53:54;11.60;70.10
79055;DHT22;68452;47.186;-1.528;2023-04-12T09:56:24;11.60;70.80
79055;DHT22;68452;47.186;-1.528;2023-04-12T09:58:52;11.70;67.50
79055;DHT22;68452;47.186;-1.528;2023-04-12T10:01:21;11.80;71.00
79055;DHT22;68452;47.186;-1.528;2023-04-12T10:03:48;12.00;69.00
79055;DHT22;68452;47.186;-1.528;2023-04-12T10:06:14;12.00;70.70
79055;DHT22;68452;47.186;-1.528;2023-04-12T10:08:41;12.00;72.00
79055;DHT22;68452;47.186;-1.528;2023-04-12T10:11:07;12.20;68.30
79055;DHT22;68452;47.186;-1.528;2023-04-12T10:13:35;12.20;70.50
79055;DHT22;68452;47.186;-1.528;2023-04-12T10:16:03;12.30;68.70
79055;DHT22;68452;47.186;-1.528;2023-04-12T10:18:30;12.30;70.00
79055;DHT22;68452;47.186;-1.528;2023-04-12T10:21:00;12.50;68.80
79055;DHT22;68452;47.186;-1.528;2023-04-12T10:23:26;12.60;65.20
79055;DHT22;68452;47.186;-1.528;2023-04-12T10:25:52;12.60;67.40
79055;DHT22;68452;47.186;-1.528;2023-04-12T10:28:21;12.80;68.60
79055;DHT22;68452;47.186;-1.528;2023-04-12T10:30:48;12.80;68.20
79055;DHT22;68452;47.186;-1.528;2023-04-12T10:33:18;12.90;69.00
79055;DHT22;68452;47.186;-1.528;2023-04-12T10:38:13;12.20;64.50
79055;DHT22;68452;47.186;-1.528;2023-04-12T10:41:06;11.80;66.00
79055;DHT22;68452;47.186;-1.528;2023-04-12T10:43:31;11.50;68.00
79055;DHT22;68452;47.186;-1.528;2023-04-12T10:45:57;11.30;70.70
79055;DHT22;68452;47.186;-1.528;2023-04-12T10:48:32;11.20;71.20
79055;DHT22;68452;47.186;-1.528;2023-04-12T10:51:20;11.20;70.80
79055;DHT22;68452;47.186;-1.528;2023-04-12T10:56:51;11.50;72.60
79055;DHT22;68452;47.186;-1.528;2023-04-12T10:59:17;11.70;70.90
79055;DHT22;68452;47.186;-1.528;2023-04-12T11:04:29;12.00;71.00
79055;DHT22;68452;47.186;-1.528;2023-04-12T11:06:59;12.00;70.50
79055;DHT22;68452;47.186;-1.528;2023-04-12T11:14:50;12.50;68.60
79055;DHT22;68452;47.186;-1.528;2023-04-12T11:19:43;12.60;67.30
79055;DHT22;68452;47.186;-1.528;2023-04-12T11:22:13;12.70;64.90
79055;DHT22;68452;47.186;-1.528;2023-04-12T11:24:43;12.80;63.00
79055;DHT22;68452;47.186;-1.528;2023-04-12T11:27:10;12.90;60.20
79055;DHT22;68452;47.186;-1.528;2023-04-12T11:29:36;13.00;58.60
79055;DHT22;68452;47.186;-1.528;2023-04-12T11:32:08;12.90;57.40
79055;DHT22;68452;47.186;-1.528;2023-04-12T11:34:35;12.90;58.50
79055;DHT22;68452;47.186;-1.528;2023-04-12T11:37:08;13.00;57.30
79055;DHT22;68452;47.186;-1.528;2023-04-12T11:39:39;13.20;59.70
79055;DHT22;68452;47.186;-1.528;2023-04-12T11:42:11;13.30;58.30
79055;DHT22;68452;47.186;-1.528;2023-04-12T11:44:39;13.30;57.20
79055;DHT22;68452;47.186;-1.528;2023-04-12T11:47:12;13.30;56.90
79055;DHT22;68452;47.186;-1.528;2023-04-12T11:49:44;13.20;57.70
79055;DHT22;68452;47.186;-1.528;2023-04-12T11:52:10;13.30;57.60
79055;DHT22;68452;47.186;-1.528;2023-04-12T11:54:40;13.20;56.90
79055;DHT22;68452;47.186;-1.528;2023-04-12T11:57:06;13.10;54.50
79055;DHT22;68452;47.186;-1.528;2023-04-12T11:59:33;13.20;57.00
79055;DHT22;68452;47.186;-1.528;2023-04-12T12:01:59;13.20;55.60
79055;DHT22;68452;47.186;-1.528;2023-04-12T12:04:29;13.30;57.40
79055;DHT22;68452;47.186;-1.528;2023-04-12T12:06:57;13.20;57.50
79055;DHT22;68452;47.186;-1.528;2023-04-12T12:09:24;13.20;56.60
79055;DHT22;68452;47.186;-1.528;2023-04-12T12:11:52;13.20;57.50
79055;DHT22;68452;47.186;-1.528;2023-04-12T12:14:21;13.40;54.60
79055;DHT22;68452;47.186;-1.528;2023-04-12T12:16:55;13.50;56.00
79055;DHT22;68452;47.186;-1.528;2023-04-12T12:19:36;13.60;57.00
79055;DHT22;68452;47.186;-1.528;2023-04-12T12:22:18;13.60;55.50
79055;DHT22;68452;47.186;-1.528;2023-04-12T12:24:55;13.70;54.10
79055;DHT22;68452;47.186;-1.528;2023-04-12T12:27:23;13.80;53.50
79055;DHT22;68452;47.186;-1.528;2023-04-12T12:29:51;13.80;55.30
79055;DHT22;68452;47.186;-1.528;2023-04-12T12:32:18;13.80;54.80
79055;DHT22;68452;47.186;-1.528;2023-04-12T12:37:19;13.80;53.30
79055;DHT22;68452;47.186;-1.528;2023-04-12T12:40:00;14.00;51.80
79055;DHT22;68452;47.186;-1.528;2023-04-12T12:42:26;14.20;56.10
79055;DHT22;68452;47.186;-1.528;2023-04-12T12:44:52;14.20;55.20
79055;DHT22;68452;47.186;-1.528;2023-04-12T12:47:18;14.10;51.20
79055;DHT22;68452;47.186;-1.528;2023-04-12T12:49:44;13.90;54.40
79055;DHT22;68452;47.186;-1.528;2023-04-12T12:52:10;14.00;52.90
79055;DHT22;68452;47.186;-1.528;2023-04-12T12:54:35;14.00;52.50
79055;DHT22;68452;47.186;-1.528;2023-04-12T12:57:01;14.10;51.70
79055;DHT22;68452;47.186;-1.528;2023-04-12T12:59:28;14.30;53.60
79055;DHT22;68452;47.186;-1.528;2023-04-12T13:01:54;14.40;53.40
79055;DHT22;68452;47.186;-1.528;2023-04-12T13:04:20;14.50;51.60
79055;DHT22;68452;47.186;-1.528;2023-04-12T13:06:46;14.50;52.10
79055;DHT22;68452;47.186;-1.528;2023-04-12T13:09:12;14.50;50.80
79055;DHT22;68452;47.186;-1.528;2023-04-12T13:11:38;14.50;51.00
79055;DHT22;68452;47.186;-1.528;2023-04-12T13:14:03;14.60;50.30
79055;DHT22;68452;47.186;-1.528;2023-04-12T13:16:29;14.60;49.00
79055;DHT22;68452;47.186;-1.528;2023-04-12T13:18:55;14.50;50.60
79055;DHT22;68452;47.186;-1.528;2023-04-12T13:21:21;14.50;50.70
79055;DHT22;68452;47.186;-1.528;2023-04-12T13:23:47;14.50;51.20
79055;DHT22;68452;47.186;-1.528;2023-04-12T13:26:12;14.60;51.20
79055;DHT22;68452;47.186;-1.528;2023-04-12T13:28:38;14.80;48.60
79055;DHT22;68452;47.186;-1.528;2023-04-12T13:31:04;14.90;49.20
79055;DHT22;68452;47.186;-1.528;2023-04-12T13:33:30;15.00;50.40
79055;DHT22;68452;47.186;-1.528;2023-04-12T13:35:56;15.30;48.00
79055;DHT22;68452;47.186;-1.528;2023-04-12T13:38:22;15.30;46.40
79055;DHT22;68452;47.186;-1.528;2023-04-12T13:40:47;15.20;45.80
79055;DHT22;68452;47.186;-1.528;2023-04-12T13:43:13;15.20;48.70
79055;DHT22;68452;47.186;-1.528;2023-04-12T13:45:39;15.20;45.10
79055;DHT22;68452;47.186;-1.528;2023-04-12T13:48:06;15.00;44.70
79055;DHT22;68452;47.186;-1.528;2023-04-12T13:50:31;14.80;46.30
79055;DHT22;68452;47.186;-1.528;2023-04-12T13:52:57;15.10;47.30
79055;DHT22;68452;47.186;-1.528;2023-04-12T13:55:23;15.20;45.80
79055;DHT22;68452;47.186;-1.528;2023-04-12T13:57:49;15.10;46.50
79055;DHT22;68452;47.186;-1.528;2023-04-12T14:00:16;15.10;45.30
79055;DHT22;68452;47.186;-1.528;2023-04-12T14:02:41;15.50;46.10
79055;DHT22;68452;47.186;-1.528;2023-04-12T14:05:07;15.70;44.30
79055;DHT22;68452;47.186;-1.528;2023-04-12T14:07:33;15.90;44.60
79055;DHT22;68452;47.186;-1.528;2023-04-12T14:09:59;15.90;44.20
79055;DHT22;68452;47.186;-1.528;2023-04-12T14:12:25;16.00;43.30
79055;DHT22;68452;47.186;-1.528;2023-04-12T14:14:50;16.30;43.70
79055;DHT22;68452;47.186;-1.528;2023-04-12T14:17:16;16.60;42.30
79055;DHT22;68452;47.186;-1.528;2023-04-12T14:19:42;16.50;42.30
79055;DHT22;68452;47.186;-1.528;2023-04-12T14:22:08;16.10;41.90
79055;DHT22;68452;47.186;-1.528;2023-04-12T14:24:34;16.10;43.50
79055;DHT22;68452;47.186;-1.528;2023-04-12T14:27:01;16.30;43.00
79055;DHT22;68452;47.186;-1.528;2023-04-12T14:29:28;16.60;40.60
79055;DHT22;68452;47.186;-1.528;2023-04-12T14:31:54;16.70;42.40
79055;DHT22;68452;47.186;-1.528;2023-04-12T14:34:20;16.90;43.70
79055;DHT22;68452;47.186;-1.528;2023-04-12T14:36:46;17.40;41.90
79055;DHT22;68452;47.186;-1.528;2023-04-12T14:39:11;17.00;40.90
79055;DHT22;68452;47.186;-1.528;2023-04-12T14:41:38;16.20;41.60
79055;DHT22;68452;47.186;-1.528;2023-04-12T14:44:04;16.60;42.10
79055;DHT22;68452;47.186;-1.528;2023-04-12T14:46:31;17.00;42.30
79055;DHT22;68452;47.186;-1.528;2023-04-12T14:48:57;17.60;39.70
79055;DHT22;68452;47.186;-1.528;2023-04-12T14:51:25;17.30;40.70
79055;DHT22;68452;47.186;-1.528;2023-04-12T14:53:53;16.80;40.90
79055;DHT22;68452;47.186;-1.528;2023-04-12T14:56:23;16.20;42.60
79055;DHT22;68452;47.186;-1.528;2023-04-12T14:58:52;15.60;43.30
79055;DHT22;68452;47.186;-1.528;2023-04-12T15:01:22;15.20;44.60
79055;DHT22;68452;47.186;-1.528;2023-04-12T15:03:50;15.50;50.80
79055;DHT22;68452;47.186;-1.528;2023-04-12T15:06:22;17.20;48.30
79055;DHT22;68452;47.186;-1.528;2023-04-12T15:08:52;18.80;45.20
79055;DHT22;68452;47.186;-1.528;2023-04-12T15:11:21;20.00;42.20
79055;DHT22;68452;47.186;-1.528;2023-04-12T15:13:51;19.70;41.60
79055;DHT22;68452;47.186;-1.528;2023-04-12T15:16:18;20.00;40.30
79055;DHT22;68452;47.186;-1.528;2023-04-12T15:18:44;20.10;40.60
79055;DHT22;68452;47.186;-1.528;2023-04-12T15:21:10;20.10;39.00
79055;DHT22;68452;47.186;-1.528;2023-04-12T15:23:38;19.70;39.70
79055;DHT22;68452;47.186;-1.528;2023-04-12T15:26:05;19.60;39.70
79055;DHT22;68452;47.186;-1.528;2023-04-12T15:28:40;18.90;38.10
79055;DHT22;68452;47.186;-1.528;2023-04-12T15:31:08;17.90;38.60
79055;DHT22;68452;47.186;-1.528;2023-04-12T15:33:36;17.00;40.30
79055;DHT22;68452;47.186;-1.528;2023-04-12T15:36:03;16.30;41.40
79055;DHT22;68452;47.186;-1.528;2023-04-12T15:38:29;15.70;43.30
79055;DHT22;68452;47.186;-1.528;2023-04-12T15:40:58;15.30;44.10
79055;DHT22;68452;47.186;-1.528;2023-04-12T15:43:25;15.10;46.20